| time (UTC) | temp C | wind direction | speed KPH | gust KPH | rain 1hr cm | rain 24hr cm | rain mn cm | humidity % | barometer mb |
| 20260510112806 | 20 | 45 | 16.1 | 19.3 | 0.00 | 0.00 | 0.00 | 57 | 1012.2 |
| 20260510111604 | 20 | 45 | 11.3 | 12.9 | 0.00 | 0.00 | 0.00 | 58 | 1012.2 |
| 20260510110404 | 20 | 37 | 12.9 | 22.5 | 0.00 | 0.00 | 0.00 | 57 | 1012.2 |
| 20260510105142 | 20 | 45 | 16.1 | 22.5 | 0.00 | 0.00 | 0.00 | 57 | 1012.2 |
| 20260510103941 | 20 | 39 | 14.5 | 19.3 | 0.00 | 0.00 | 0.00 | 58 | 1012.2 |
| 20260510102739 | 20 | 45 | 9.7 | 16.1 | 0.00 | 0.00 | 0.00 | 59 | 1012.2 |
| 20260510101559 | 19 | 34 | 14.5 | 17.7 | 0.00 | 0.00 | 0.00 | 59 | 1012.2 |
| 20260510100338 | 19 | 38 | 19.3 | 22.5 | 0.00 | 0.00 | 0.00 | 59 | 1012.2 |
| 20260510095136 | 19 | 45 | 25.7 | 27.4 | 0.00 | 0.00 | 0.00 | 61 | 1012.2 |
| 20260510093936 | 18 | 45 | 24.1 | 33.8 | 0.00 | 0.00 | 0.00 | 62 | 1012.2 |
| 20260510092734 | 18 | 45 | 12.9 | 20.9 | 0.00 | 0.00 | 0.00 | 64 | 1012.2 |
| 20260510091532 | 17 | 23 | 11.3 | 17.7 | 0.00 | 0.00 | 0.00 | 66 | 1012.2 |
| 20260510090352 | 17 | 40 | 19.3 | 27.4 | 0.00 | 0.00 | 0.00 | 66 | 1012.2 |
| 20260510085131 | 17 | 23 | 19.3 | 27.4 | 0.00 | 0.00 | 0.00 | 67 | 1012.2 |
| 20260510083930 | 17 | 23 | 11.3 | 17.7 | 0.00 | 0.00 | 0.00 | 68 | 1012.2 |
| 20260510082728 | 16 | 45 | 17.7 | 22.5 | 0.00 | 0.00 | 0.00 | 69 | 1012.2 |
| 20260510081547 | 16 | 45 | 16.1 | 25.7 | 0.00 | 0.00 | 0.00 | 70 | 1012.2 |
| 20260510080326 | 16 | 41 | 17.7 | 20.9 | 0.00 | 0.00 | 0.00 | 71 | 1012.2 |
| 20260510075125 | 16 | 13 | 16.1 | 22.5 | 0.00 | 0.00 | 0.00 | 73 | 1012.2 |
| 20260510073924 | 15 | 45 | 12.9 | 16.1 | 0.00 | 0.00 | 0.00 | 75 | 1012.2 |
| 20260510072722 | 15 | 39 | 19.3 | 25.7 | 0.00 | 0.00 | 0.00 | 78 | 1012.2 |
| 20260510071541 | 14 | 26 | 11.3 | 17.7 | 0.00 | 0.00 | 0.00 | 81 | 1014.8 |
| 20260510070320 | 13 | 45 | 12.9 | 17.7 | 0.00 | 0.00 | 0.00 | 83 | 1015.6 |
| 20260510065119 | 13 | 33 | 17.7 | 24.1 | 0.00 | 0.00 | 0.00 | 86 | 1015.6 |
| 20260510063918 | 12 | 37 | 12.9 | 27.4 | 0.00 | 0.00 | 0.00 | 89 | 1015.6 |
| 20260510062716 | 12 | 45 | 12.9 | 14.5 | 0.00 | 0.00 | 0.00 | 91 | 1013.9 |
| 20260510061515 | 12 | 23 | 12.9 | 22.5 | 0.00 | 0.00 | 0.00 | 92 | 1015.6 |
| 20260510060414 | 11 | 45 | 11.3 | 16.1 | 0.00 | 0.00 | 0.00 | 93 | 1015.6 |
| 20260510055213 | 11 | 23 | 12.9 | 16.1 | 0.00 | 0.00 | 0.00 | 94 | 1015.6 |
| 20260510054012 | 11 | 54 | 6.4 | 11.3 | 0.00 | 0.00 | 0.00 | 95 | 1015.6 |
| 20260510052831 | 11 | 40 | 12.9 | 14.5 | 0.00 | 0.00 | 0.00 | 95 | 1015.6 |
| 20260510051609 | 10 | 23 | 6.4 | 11.3 | 0.00 | 0.00 | 0.00 | 95 | 1015.6 |
| 20260510050448 | 10 | 23 | 6.4 | 12.9 | 0.00 | 0.00 | 0.00 | 95 | 1015.6 |
| 20260510045207 | 10 | 41 | 6.4 | 9.7 | 0.00 | 0.00 | 0.00 | 95 | 1015.6 |
| 20260510044006 | 10 | 27 | 6.4 | 12.9 | 0.00 | 0.00 | 0.00 | 95 | 1015.6 |
| 20260510042805 | 10 | 23 | 8.0 | 12.9 | 0.00 | 0.00 | 0.00 | 95 | 1015.6 |
| 20260510041604 | 11 | 33 | 3.2 | 6.4 | 0.00 | 0.00 | 0.00 | 95 | 1015.6 |
| 20260510040402 | 11 | 14 | 4.8 | 14.5 | 0.00 | 0.00 | 0.00 | 94 | 1014.8 |
| 20260510035201 | 11 | 26 | 4.8 | 9.7 | 0.00 | 0.00 | 0.00 | 94 | 1015.6 |
| 20260510034040 | 11 | 23 | 6.4 | 8.0 | 0.00 | 0.00 | 0.00 | 94 | 1015.6 |
| 20260510032759 | 11 | 38 | 3.2 | 8.0 | 0.00 | 0.00 | 0.00 | 93 | 1015.6 |
| 20260510031558 | 11 | 41 | 6.4 | 9.7 | 0.00 | 0.00 | 0.00 | 93 | 1012.2 |
| 20260510030357 | 11 | 52 | 4.8 | 8.0 | 0.00 | 0.00 | 0.00 | 92 | 1015.6 |
| 20260510025155 | 11 | 33 | 3.2 | 6.4 | 0.00 | 0.00 | 0.00 | 92 | 1015.6 |
| 20260510023955 | 11 | 27 | 6.4 | 12.9 | 0.00 | 0.00 | 0.00 | 91 | 1015.6 |
| 20260510022754 | 11 | 13 | 4.8 | 11.3 | 0.00 | 0.00 | 0.00 | 91 | 1015.6 |
| 20260510021553 | 11 | 23 | 6.4 | 8.0 | 0.00 | 0.00 | 0.00 | 90 | 1015.6 |
| 20260510020352 | 11 | 30 | 6.4 | 11.3 | 0.00 | 0.00 | 0.00 | 89 | 1015.6 |
| 20260510015151 | 11 | 3 | 6.4 | 11.3 | 0.00 | 0.00 | 0.00 | 88 | 1015.6 |
| 20260510013949 | 11 | 23 | 8.0 | 11.3 | 0.00 | 0.00 | 0.00 | 87 | 1015.6 |
| 20260510012749 | 11 | 23 | 4.8 | 4.8 | 0.00 | 0.00 | 0.00 | 87 | 1015.6 |
| 20260510011547 | 11 | 40 | 3.2 | 4.8 | 0.00 | 0.00 | 0.00 | 86 | 1015.6 |
| 20260510010407 | 11 | 30 | 1.6 | 4.8 | 0.00 | 0.00 | 0.00 | 85 | 1015.6 |
| 20260510005145 | 11 | 19 | 4.8 | 8.0 | 0.00 | 0.00 | 0.00 | 84 | 1015.6 |
| 20260510004005 | 12 | 34 | 3.2 | 8.0 | 0.00 | 0.00 | 0.00 | 84 | 1015.6 |
| 20260510002743 | 11 | 23 | 4.8 | 9.7 | 0.00 | 0.00 | 0.00 | 82 | 1015.6 |
| 20260510001542 | 12 | 14 | 4.8 | 9.7 | 0.00 | 0.00 | 0.00 | 81 | 1015.6 |
| 20260510000342 | 12 | 16 | 3.2 | 6.4 | 0.00 | 0.00 | 0.00 | 80 | 1014.8 |
| 20260509235140 | 12 | 15 | 4.8 | 9.7 | 0.00 | 0.00 | 0.00 | 79 | 1015.6 |
| 20260509233939 | 12 | 23 | 3.2 | 4.8 | 0.00 | 0.00 | 0.00 | 78 | 1015.6 |
| 20260509232819 | 12 | 18 | 4.8 | 9.7 | 0.00 | 0.00 | 0.00 | 77 | 1015.6 |
| 20260509231537 | 12 | 34 | 1.6 | 4.8 | 0.00 | 0.00 | 0.00 | 76 | 1015.6 |
| 20260509230357 | 12 | 21 | 3.2 | 6.4 | 0.00 | 0.00 | 0.00 | 75 | 1015.6 |
| 20260509225135 | 13 | 40 | 4.8 | 6.4 | 0.00 | 0.00 | 0.00 | 75 | 1015.6 |
| 20260509223954 | 13 | 40 | 4.8 | 8.0 | 0.00 | 0.00 | 0.00 | 74 | 1015.6 |
| 20260509222733 | 13 | 45 | 4.8 | 6.4 | 0.00 | 0.00 | 0.00 | 74 | 1015.6 |
| 20260509221532 | 13 | 48 | 3.2 | 4.8 | 0.00 | 0.00 | 0.00 | 74 | 1015.6 |
| 20260509220330 | 13 | 34 | 1.6 | 4.8 | 0.00 | 0.00 | 0.00 | 74 | 1015.6 |
| 20260509215725 | 13 | 45 | 1.6 | 4.8 | 0.00 | 0.00 | 0.00 | 73 | 1015.6 |
| 20260509214523 | 14 | 23 | 4.8 | 9.7 | 0.00 | 0.00 | 0.00 | 73 | 1015.6 |
| 20260509213322 | 14 | 23 | 8.0 | 9.7 | 0.00 | 0.00 | 0.00 | 72 | 1015.6 |
| 20260509212121 | 14 | 34 | 6.4 | 12.9 | 0.00 | 0.00 | 0.00 | 71 | 1015.6 |
| 20260509210920 | 15 | 23 | 4.8 | 8.0 | 0.00 | 0.00 | 0.00 | 70 | 1015.6 |
| 20260509205738 | 15 | 45 | 3.2 | 4.8 | 0.00 | 0.00 | 0.00 | 70 | 1015.6 |
| 20260509204518 | 15 | 41 | 6.4 | 11.3 | 0.00 | 0.00 | 0.00 | 68 | 1015.6 |
| 20260509203316 | 15 | 42 | 3.2 | 8.0 | 0.00 | 0.00 | 0.00 | 67 | 1015.6 |
| 20260509202115 | 16 | 45 | 3.2 | 4.8 | 0.00 | 0.00 | 0.00 | 66 | 1015.6 |
| 20260509201014 | 16 | 44 | 8.0 | 12.9 | 0.00 | 0.00 | 0.00 | 65 | 1015.6 |
| 20260509195833 | 16 | 29 | 8.0 | 11.3 | 0.00 | 0.00 | 0.00 | 64 | 1015.6 |
| 20260509194612 | 16 | 50 | 6.4 | 9.7 | 0.00 | 0.00 | 0.00 | 63 | 1015.6 |
| 20260509193431 | 17 | 45 | 6.4 | 11.3 | 0.00 | 0.00 | 0.00 | 62 | 1015.6 |
| 20260509192210 | 17 | 26 | 9.7 | 11.3 | 0.00 | 0.00 | 0.00 | 61 | 1015.6 |
| 20260509191009 | 17 | 23 | 8.0 | 11.3 | 0.00 | 0.00 | 0.00 | 60 | 1015.6 |
| 20260509185808 | 18 | 27 | 8.0 | 11.3 | 0.00 | 0.00 | 0.00 | 59 | 1015.6 |
| 20260509184607 | 18 | 38 | 9.7 | 14.5 | 0.00 | 0.00 | 0.00 | 59 | 1015.6 |
| 20260509183406 | 18 | 40 | 9.7 | 14.5 | 0.00 | 0.00 | 0.00 | 58 | 1015.6 |
| 20260509182205 | 19 | 35 | 6.4 | 14.5 | 0.00 | 0.00 | 0.00 | 57 | 1015.6 |
| 20260509181003 | 19 | 40 | 8.0 | 9.7 | 0.00 | 0.00 | 0.00 | 56 | 1015.6 |
| 20260509175802 | 20 | 39 | 8.0 | 11.3 | 0.00 | 0.00 | 0.00 | 56 | 1015.6 |
| 20260509174601 | 20 | 45 | 11.3 | 11.3 | 0.00 | 0.00 | 0.00 | 55 | 1015.6 |
| 20260509173400 | 20 | 18 | 11.3 | 14.5 | 0.00 | 0.00 | 0.00 | 55 | 1015.6 |
| 20260509172217 | 20 | 30 | 6.4 | 9.7 | 0.00 | 0.00 | 0.00 | 54 | 1015.6 |
| 20260509170957 | 20 | 39 | 8.0 | 9.7 | 0.00 | 0.00 | 0.00 | 54 | 1015.6 |
| 20260509165756 | 20 | 29 | 9.7 | 12.9 | 0.00 | 0.00 | 0.00 | 53 | 1015.6 |
| 20260509164554 | 20 | 36 | 11.3 | 14.5 | 0.00 | 0.00 | 0.00 | 52 | 1015.6 |
| 20260509163353 | 21 | 45 | 9.7 | 11.3 | 0.00 | 0.00 | 0.00 | 53 | 1015.6 |
| 20260509162152 | 21 | 53 | 4.8 | 9.7 | 0.00 | 0.00 | 0.00 | 53 | 1015.6 |
| 20260509161010 | 21 | 113 | 8.0 | 9.7 | 0.00 | 0.00 | 0.00 | 52 | 1015.6 |
| 20260509155749 | 21 | 65 | 9.7 | 12.9 | 0.00 | 0.00 | 0.00 | 52 | 1015.6 |
| 20260509154547 | 21 | 58 | 8.0 | 12.9 | 0.00 | 0.00 | 0.00 | 51 | 1015.6 |
| 20260509153346 | 21 | 23 | 12.9 | 14.5 | 0.00 | 0.00 | 0.00 | 50 | 1015.6 |
| 20260509152144 | 22 | 34 | 9.7 | 16.1 | 0.00 | 0.00 | 0.00 | 49 | 1015.6 |
| 20260509150944 | 23 | 38 | 12.9 | 17.7 | 0.00 | 0.00 | 0.00 | 48 | 1015.6 |
| 20260509145742 | 23 | 286 | 3.2 | 6.4 | 0.00 | 0.00 | 0.00 | 50 | 1015.6 |
| 20260509144540 | 21 | 65 | 4.8 | 8.0 | 0.00 | 0.00 | 0.00 | 51 | 1015.6 |
| 20260509143359 | 22 | 96 | 9.7 | 9.7 | 0.00 | 0.00 | 0.00 | 49 | 1015.6 |
| 20260509142137 | 23 | 45 | 6.4 | 9.7 | 0.00 | 0.00 | 0.00 | 48 | 1015.6 |
| 20260509140956 | 23 | 57 | 12.9 | 20.9 | 0.00 | 0.00 | 0.00 | 48 | 1015.6 |
| 20260509135735 | 23 | 353 | 3.2 | 8.0 | 0.00 | 0.00 | 0.00 | 49 | 1015.6 |
| 20260509134534 | 22 | 59 | 9.7 | 12.9 | 0.00 | 0.00 | 0.00 | 50 | 1015.6 |
| 20260509133333 | 22 | 349 | 11.3 | 14.5 | 0.00 | 0.00 | 0.00 | 51 | 1015.6 |
| 20260509132132 | 22 | 51 | 6.4 | 11.3 | 0.00 | 0.00 | 0.00 | 52 | 1015.6 |
| 20260509130930 | 22 | 29 | 8.0 | 9.7 | 0.00 | 0.00 | 0.00 | 52 | 1015.6 |
| 20260509125728 | 22 | 45 | 12.9 | 17.7 | 0.00 | 0.00 | 0.00 | 50 | 1015.6 |
| 20260509124527 | 22 | 70 | 8.0 | 11.3 | 0.00 | 0.00 | 0.00 | 50 | 1015.6 |
| 20260509123326 | 23 | 61 | 9.7 | 12.9 | 0.00 | 0.00 | 0.00 | 49 | 1015.6 |
| 20260509122125 | 24 | 22 | 12.9 | 16.1 | 0.00 | 0.00 | 0.00 | 49 | 1015.6 |
| 20260509120923 | 23 | 27 | 8.0 | 9.7 | 0.00 | 0.00 | 0.00 | 51 | 1015.6 |
| 20260509115722 | 22 | 71 | 9.7 | 14.5 | 0.00 | 0.00 | 0.00 | 51 | 1015.6 |
| 20260509114521 | 22 | 68 | 11.3 | 17.7 | 0.00 | 0.00 | 0.00 | 52 | 1015.6 |